Time;durP1;ratioP1;P1;durP2;ratioP2;P2;SDS_P1;SDS_P2;PMS_P1;PMS_P2;Temp;Humidity;BMP_temperature;BMP_pressure;BME280_temperature;BME280_humidity;BME280_pressure;Samples;Min_cycle;Max_cycle;Signal;HPM_P1;HPM_P2
2022/04/01 00:01:48;;;;;;;6.97;2.08;;;;;;;;;;5063474;28;20028;-72
2022/04/01 00:04:14;;;;;;;7.00;2.20;;;;;;;;;;5055783;28;20604;-71
2022/04/01 00:06:40;;;;;;;4.82;1.38;;;;;;;;;;5051841;28;20048;-71
2022/04/01 00:09:07;;;;;;;6.57;1.52;;;;;;;;;;5064942;28;20026;-71
2022/04/01 00:11:33;;;;;;;4.18;1.63;;;;;;;;;;5060450;28;20043;-71
2022/04/01 00:13:59;;;;;;;3.80;1.60;;;;;;;;;;5025302;28;20056;-71
2022/04/01 00:16:25;;;;;;;7.03;1.92;;;;;;;;;;5055546;28;20250;-71
2022/04/01 00:18:51;;;;;;;8.35;2.10;;;;;;;;;;5057635;28;20031;-76
2022/04/01 00:21:17;;;;;;;6.63;2.00;;;;;;;;;;5066614;28;20029;-75
2022/04/01 00:23:43;;;;;;;5.38;2.03;;;;;;;;;;5064231;28;20073;-72
2022/04/01 00:26:10;;;;;;;8.52;2.03;;;;;;;;;;5065461;28;20035;-72
2022/04/01 00:28:36;;;;;;;6.47;1.95;;;;;;;;;;5047693;28;20028;-72
2022/04/01 00:31:03;;;;;;;8.50;1.98;;;;;;;;;;5052127;28;20108;-71
2022/04/01 00:33:29;;;;;;;7.20;1.73;;;;;;;;;;5046811;28;20025;-72
2022/04/01 00:35:55;;;;;;;4.90;1.98;;;;;;;;;;5066168;28;20103;-72
2022/04/01 00:38:21;;;;;;;5.38;2.45;;;;;;;;;;5050937;28;20060;-72
2022/04/01 00:40:48;;;;;;;8.20;2.00;;;;;;;;;;5045903;28;20059;-71
2022/04/01 00:43:14;;;;;;;3.42;1.55;;;;;;;;;;5044794;28;20025;-72
2022/04/01 00:45:40;;;;;;;4.82;1.85;;;;;;;;;;5046217;28;20539;-73
2022/04/01 00:48:07;;;;;;;1.88;1.00;;;;;;;;;;5045641;28;20029;-72
2022/04/01 00:50:34;;;;;;;3.67;1.73;;;;;;;;;;5046052;28;20037;-72
2022/04/01 00:53:00;;;;;;;4.15;1.40;;;;;;;;;;5045666;28;20025;-76
2022/04/01 00:55:28;;;;;;;4.05;1.40;;;;;;;;;;5044517;28;20041;-76
2022/04/01 00:57:55;;;;;;;5.78;1.67;;;;;;;;;;5044484;28;20461;-72
2022/04/01 01:00:21;;;;;;;3.58;1.40;;;;;;;;;;5045635;28;20064;-72
2022/04/01 01:02:47;;;;;;;5.85;1.67;;;;;;;;;;5045226;28;20029;-72
2022/04/01 01:05:13;;;;;;;9.27;2.08;;;;;;;;;;5043810;28;20028;-71
2022/04/01 01:07:42;;;;;;;5.43;1.98;;;;;;;;;;5043842;28;20036;-71
2022/04/01 01:10:10;;;;;;;7.05;1.85;;;;;;;;;;5063649;28;20082;-71
2022/04/01 01:12:36;;;;;;;6.95;2.05;;;;;;;;;;5067739;28;20033;-71
2022/04/01 01:15:10;;;;;;;9.63;2.58;;;;;;;;;;5066396;28;20086;-71
2022/04/01 01:17:38;;;;;;;7.32;2.60;;;;;;;;;;5066980;28;20037;-71
2022/04/01 01:20:12;;;;;;;6.90;2.28;;;;;;;;;;5047867;28;20151;-71
2022/04/01 01:22:39;;;;;;;7.68;2.20;;;;;;;;;;5045897;28;20482;-71
2022/04/01 01:25:07;;;;;;;6.97;2.90;;;;;;;;;;5048217;28;20025;-71
2022/04/01 01:27:33;;;;;;;7.75;2.78;;;;;;;;;;5047932;28;20021;-71
2022/04/01 01:30:02;;;;;;;9.15;3.05;;;;;;;;;;5029851;28;20024;-71
2022/04/01 01:32:29;;;;;;;6.78;2.58;;;;;;;;;;5047481;28;20056;-71
2022/04/01 01:34:58;;;;;;;9.10;3.33;;;;;;;;;;5045729;28;20041;-71
2022/04/01 01:37:24;;;;;;;9.40;3.50;;;;;;;;;;5047372;28;20721;-71
2022/04/01 01:39:51;;;;;;;13.52;3.20;;;;;;;;;;5047565;28;20017;-72
2022/04/01 01:42:18;;;;;;;7.90;3.35;;;;;;;;;;5047484;28;20560;-71
2022/04/01 01:44:45;;;;;;;7.93;2.67;;;;;;;;;;5048452;28;20031;-71
2022/04/01 01:47:12;;;;;;;9.88;3.08;;;;;;;;;;5045534;28;20020;-71
2022/04/01 01:54:42;;;;;;;8.60;3.00;;;;;;;;;;5047290;28;20110;-71
2022/04/01 01:55:09;;;;;;;7.93;3.25;;;;;;;;;;5027184;28;20037;-71
2022/04/01 01:57:35;;;;;;;10.50;3.58;;;;;;;;;;5025685;28;20509;-71
2022/04/01 02:00:10;;;;;;;12.40;3.45;;;;;;;;;;5027052;28;20034;-71
2022/04/01 02:02:37;;;;;;;7.25;2.75;;;;;;;;;;5031766;28;20054;-71
2022/04/01 02:05:04;;;;;;;9.90;2.80;;;;;;;;;;5066943;28;20052;-71
2022/04/01 02:07:30;;;;;;;11.25;3.60;;;;;;;;;;5063662;28;20064;-71
2022/04/01 02:09:57;;;;;;;14.27;3.03;;;;;;;;;;5067112;28;20358;-71
2022/04/01 02:12:23;;;;;;;11.68;3.03;;;;;;;;;;5066945;28;20061;-71
2022/04/01 02:14:49;;;;;;;6.50;2.80;;;;;;;;;;5062350;28;20089;-72
2022/04/01 02:17:15;;;;;;;10.05;2.72;;;;;;;;;;5046878;28;20059;-71
2022/04/01 02:19:41;;;;;;;11.07;3.10;;;;;;;;;;5046789;28;20492;-71
2022/04/01 02:22:07;;;;;;;11.50;3.60;;;;;;;;;;5045650;28;20021;-71
2022/04/01 02:24:34;;;;;;;8.98;2.90;;;;;;;;;;5041305;28;20021;-71
2022/04/01 02:27:00;;;;;;;10.77;3.22;;;;;;;;;;5039024;28;20025;-71
2022/04/01 02:29:28;;;;;;;10.55;3.08;;;;;;;;;;5034001;28;20381;-71
2022/04/01 02:31:54;;;;;;;8.52;3.00;;;;;;;;;;5035074;28;20041;-72
2022/04/01 02:34:23;;;;;;;6.25;2.90;;;;;;;;;;5027792;28;20124;-71
2022/04/01 02:36:49;;;;;;;10.77;3.17;;;;;;;;;;5040896;28;20041;-71
2022/04/01 02:39:16;;;;;;;10.15;3.20;;;;;;;;;;5033091;28;20029;-71
2022/04/01 02:41:42;;;;;;;10.13;3.13;;;;;;;;;;5030232;28;20025;-71
2022/04/01 02:44:08;;;;;;;12.35;2.92;;;;;;;;;;5028159;28;20026;-71
2022/04/01 02:46:39;;;;;;;10.82;3.08;;;;;;;;;;5032678;28;20030;-71
2022/04/01 02:49:06;;;;;;;13.05;3.22;;;;;;;;;;5032420;28;20013;-71
2022/04/01 02:51:34;;;;;;;10.00;3.30;;;;;;;;;;5031731;28;20037;-72
2022/04/01 02:54:00;;;;;;;9.98;3.85;;;;;;;;;;5031133;28;20029;-71
2022/04/01 02:56:26;;;;;;;8.32;3.17;;;;;;;;;;5031253;28;20044;-71
2022/04/01 02:58:53;;;;;;;11.90;3.35;;;;;;;;;;5032957;28;20048;-71
2022/04/01 03:01:20;;;;;;;7.55;3.00;;;;;;;;;;5032222;28;20089;-71
2022/04/01 03:03:46;;;;;;;11.30;3.13;;;;;;;;;;5032932;28;20082;-71
2022/04/01 03:06:12;;;;;;;12.02;3.70;;;;;;;;;;5016452;28;20415;-71
2022/04/01 03:08:40;;;;;;;8.65;3.45;;;;;;;;;;5032999;28;20028;-71
2022/04/01 03:11:06;;;;;;;9.27;3.00;;;;;;;;;;5034313;28;20374;-71
2022/04/01 03:13:33;;;;;;;10.48;3.67;;;;;;;;;;5033330;28;20018;-72
2022/04/01 03:15:59;;;;;;;14.65;3.17;;;;;;;;;;5040382;28;20087;-72
2022/04/01 03:18:25;;;;;;;13.05;3.47;;;;;;;;;;5032137;28;20044;-71
2022/04/01 03:20:51;;;;;;;11.55;3.53;;;;;;;;;;5035201;28;20083;-71
2022/04/01 03:23:17;;;;;;;12.15;3.47;;;;;;;;;;5032847;28;20029;-71
2022/04/01 03:25:43;;;;;;;11.45;4.53;;;;;;;;;;5042425;28;20398;-71
2022/04/01 03:28:10;;;;;;;13.85;3.53;;;;;;;;;;5042390;28;20025;-71
2022/04/01 03:30:36;;;;;;;11.82;3.38;;;;;;;;;;5040896;28;20520;-71
2022/04/01 03:33:02;;;;;;;8.30;3.30;;;;;;;;;;5060702;28;20043;-71
2022/04/01 03:35:28;;;;;;;14.13;3.53;;;;;;;;;;5061804;28;20032;-71
2022/04/01 03:37:54;;;;;;;18.00;4.18;;;;;;;;;;5062096;28;20114;-71
2022/04/01 03:40:22;;;;;;;7.72;3.30;;;;;;;;;;5062379;28;20131;-71
2022/04/01 03:42:51;;;;;;;8.60;3.22;;;;;;;;;;5062126;28;20484;-71
2022/04/01 03:45:17;;;;;;;13.25;3.20;;;;;;;;;;5060288;28;20039;-71
2022/04/01 03:48:02;;;;;;;12.30;3.47;;;;;;;;;;5060682;28;20024;-71
2022/04/01 03:50:30;;;;;;;10.85;3.20;;;;;;;;;;5062132;28;20044;-71
2022/04/01 03:53:00;;;;;;;9.95;3.95;;;;;;;;;;5043168;28;20032;-71
2022/04/01 03:55:30;;;;;;;13.52;3.47;;;;;;;;;;5043632;28;20404;-71
2022/04/01 03:58:01;;;;;;;12.80;3.30;;;;;;;;;;5062071;28;20016;-71
2022/04/01 04:00:29;;;;;;;12.98;3.47;;;;;;;;;;5062465;28;20056;-71
2022/04/01 04:02:55;;;;;;;8.27;2.53;;;;;;;;;;5059657;28;20634;-71
2022/04/01 04:05:22;;;;;;;18.33;4.03;;;;;;;;;;5044358;28;20028;-71
2022/04/01 04:07:49;;;;;;;12.70;3.58;;;;;;;;;;5062016;28;20558;-71
2022/04/01 04:10:15;;;;;;;13.82;3.42;;;;;;;;;;5061900;28;20020;-71
2022/04/01 04:12:44;;;;;;;18.77;3.90;;;;;;;;;;5061380;28;20043;-71
2022/04/01 04:15:10;;;;;;;12.68;3.35;;;;;;;;;;5061556;28;20016;-71
2022/04/01 04:17:36;;;;;;;13.15;3.33;;;;;;;;;;5049254;28;20044;-71
2022/04/01 04:20:10;;;;;;;11.50;3.90;;;;;;;;;;5041883;28;20021;-71
2022/04/01 04:22:55;;;;;;;14.90;3.13;;;;;;;;;;5040179;28;20057;-71
2022/04/01 04:25:26;;;;;;;9.93;3.28;;;;;;;;;;5041383;28;20029;-71
2022/04/01 04:27:59;;;;;;;11.67;3.30;;;;;;;;;;5041653;28;20555;-71
2022/04/01 04:30:33;;;;;;;12.25;3.38;;;;;;;;;;5040020;28;20453;-71
2022/04/01 04:33:06;;;;;;;15.48;3.63;;;;;;;;;;5039092;28;20036;-71
2022/04/01 04:35:43;;;;;;;12.88;3.83;;;;;;;;;;5040964;28;20063;-71
2022/04/01 04:38:10;;;;;;;10.95;3.55;;;;;;;;;;5041360;28;20025;-71
2022/04/01 04:40:36;;;;;;;5.90;2.65;;;;;;;;;;5041125;28;20037;-71
2022/04/01 04:43:03;;;;;;;9.88;3.05;;;;;;;;;;5040705;28;20033;-71
2022/04/01 04:45:29;;;;;;;10.18;3.35;;;;;;;;;;5022997;28;20439;-71
2022/04/01 04:47:56;;;;;;;10.75;2.85;;;;;;;;;;5041104;28;20025;-71
2022/04/01 04:50:22;;;;;;;12.40;2.83;;;;;;;;;;5041625;28;20486;-71
2022/04/01 04:52:50;;;;;;;9.38;2.90;;;;;;;;;;5041381;28;20022;-72
2022/04/01 04:55:17;;;;;;;8.25;3.05;;;;;;;;;;5039584;28;20723;-71
2022/04/01 04:57:44;;;;;;;11.23;2.75;;;;;;;;;;5040726;28;20708;-71
2022/04/01 05:00:11;;;;;;;9.25;3.40;;;;;;;;;;5041012;28;20132;-71
2022/04/01 05:02:39;;;;;;;6.68;2.65;;;;;;;;;;5042296;28;20033;-71
2022/04/01 05:05:09;;;;;;;8.05;2.58;;;;;;;;;;5048364;28;20078;-71
2022/04/01 05:07:37;;;;;;;8.65;2.70;;;;;;;;;;5060287;28;20032;-71
2022/04/01 05:10:04;;;;;;;11.25;2.88;;;;;;;;;;5060354;28;20032;-72
2022/04/01 05:12:34;;;;;;;8.02;3.05;;;;;;;;;;5060210;28;20036;-71
2022/04/01 05:15:11;;;;;;;11.13;2.80;;;;;;;;;;5060984;28;20330;-71
2022/04/01 05:17:37;;;;;;;6.75;2.50;;;;;;;;;;5058891;28;20111;-71
2022/04/01 05:20:17;;;;;;;9.50;2.65;;;;;;;;;;5060201;28;20024;-71
2022/04/01 05:22:56;;;;;;;15.07;3.33;;;;;;;;;;5060164;28;20054;-71
2022/04/01 05:25:25;;;;;;;7.68;3.28;;;;;;;;;;5060393;28;20035;-71
2022/04/01 05:27:58;;;;;;;10.00;3.00;;;;;;;;;;5060598;28;20384;-71
2022/04/01 05:30:25;;;;;;;14.75;3.42;;;;;;;;;;5051251;28;20030;-72
2022/04/01 05:33:08;;;;;;;8.80;3.05;;;;;;;;;;5016677;28;20640;-71
2022/04/01 05:35:37;;;;;;;9.85;3.60;;;;;;;;;;5027065;28;20032;-71
2022/04/01 05:38:04;;;;;;;9.05;3.13;;;;;;;;;;5040814;28;20393;-71
2022/04/01 05:40:30;;;;;;;11.18;3.03;;;;;;;;;;5039312;28;20029;-71
2022/04/01 05:42:57;;;;;;;14.65;3.72;;;;;;;;;;5039612;28;20055;-71
2022/04/01 05:45:30;;;;;;;11.43;4.07;;;;;;;;;;5038192;28;20457;-71
2022/04/01 05:47:57;;;;;;;10.77;3.17;;;;;;;;;;5002619;28;20064;-71
2022/04/01 05:50:25;;;;;;;12.40;3.42;;;;;;;;;;5027187;28;20037;-71
2022/04/01 05:52:52;;;;;;;7.00;2.72;;;;;;;;;;5041761;28;20086;-72
2022/04/01 05:55:23;;;;;;;6.32;2.63;;;;;;;;;;5041126;28;20104;-71
2022/04/01 05:57:50;;;;;;;11.23;2.55;;;;;;;;;;5042574;28;20055;-71
2022/04/01 06:00:16;;;;;;;7.47;2.10;;;;;;;;;;5057924;28;20020;-71
2022/04/01 06:02:48;;;;;;;4.07;2.20;;;;;;;;;;5061891;28;20033;-71
2022/04/01 06:05:33;;;;;;;4.50;1.67;;;;;;;;;;5060762;28;20078;-71
2022/04/01 06:08:06;;;;;;;5.70;1.55;;;;;;;;;;5062211;28;20032;-71
2022/04/01 06:10:33;;;;;;;5.55;2.03;;;;;;;;;;5062081;28;20029;-71
2022/04/01 06:13:14;;;;;;;7.20;1.85;;;;;;;;;;5059222;28;20121;-71
2022/04/01 06:15:59;;;;;;;6.40;2.20;;;;;;;;;;5060621;28;20025;-71
2022/04/01 06:18:34;;;;;;;7.65;2.10;;;;;;;;;;5061551;28;20633;-71
2022/04/01 06:21:05;;;;;;;8.57;2.17;;;;;;;;;;5062004;28;20087;-71
2022/04/01 06:23:34;;;;;;;8.43;2.40;;;;;;;;;;5060613;28;20033;-70
2022/04/01 06:26:00;;;;;;;6.53;2.17;;;;;;;;;;5062096;28;20027;-71
2022/04/01 06:28:31;;;;;;;4.75;2.00;;;;;;;;;;5060265;28;20544;-71
2022/04/01 06:31:03;;;;;;;6.03;2.17;;;;;;;;;;5059934;28;20044;-71
2022/04/01 06:33:37;;;;;;;10.95;2.28;;;;;;;;;;5058242;28;20031;-71
2022/04/01 06:36:05;;;;;;;6.18;2.20;;;;;;;;;;5060025;28;20032;-71
2022/04/01 06:38:32;;;;;;;4.90;2.03;;;;;;;;;;5060098;28;20086;-71
2022/04/01 06:41:03;;;;;;;6.00;1.90;;;;;;;;;;5060549;28;20021;-70
2022/04/01 06:43:29;;;;;;;6.70;2.30;;;;;;;;;;5059676;28;20028;-70
2022/04/01 06:45:56;;;;;;;10.20;2.70;;;;;;;;;;5063828;28;20040;-72
2022/04/01 06:48:22;;;;;;;7.13;2.40;;;;;;;;;;5054678;28;20047;-71
2022/04/01 06:50:51;;;;;;;10.52;2.65;;;;;;;;;;5047068;28;20028;-73
2022/04/01 06:53:18;;;;;;;7.05;2.30;;;;;;;;;;5047092;28;20112;-71
2022/04/01 06:55:44;;;;;;;6.45;2.50;;;;;;;;;;5047272;28;20032;-71
2022/04/01 06:58:11;;;;;;;7.70;2.25;;;;;;;;;;5058209;28;20033;-77
2022/04/01 07:00:38;;;;;;;5.82;2.40;;;;;;;;;;5049757;28;20496;-72
2022/04/01 07:03:04;;;;;;;8.45;2.85;;;;;;;;;;5057505;28;20107;-71
2022/04/01 07:05:35;;;;;;;8.90;2.50;;;;;;;;;;5045585;28;20067;-71
2022/04/01 07:08:01;;;;;;;8.25;2.22;;;;;;;;;;5055223;28;20592;-72
2022/04/01 07:10:28;;;;;;;7.38;2.22;;;;;;;;;;5061662;28;20033;-70
2022/04/01 07:12:54;;;;;;;10.93;3.13;;;;;;;;;;5047287;28;20032;-70
2022/04/01 07:15:20;;;;;;;7.05;3.10;;;;;;;;;;5046123;28;20025;-71
2022/04/01 07:17:46;;;;;;;8.13;2.92;;;;;;;;;;5054985;28;20021;-70
2022/04/01 07:20:13;;;;;;;7.00;2.38;;;;;;;;;;5062721;28;20515;-74
2022/04/01 07:22:40;;;;;;;9.80;2.38;;;;;;;;;;5064106;28;20067;-75
2022/04/01 07:25:07;;;;;;;6.15;2.55;;;;;;;;;;5062973;28;20079;-71
2022/04/01 07:27:35;;;;;;;4.75;2.22;;;;;;;;;;5065076;28;20115;-71
2022/04/01 07:30:01;;;;;;;10.55;2.15;;;;;;;;;;5046036;28;20025;-70
2022/04/01 07:32:32;;;;;;;6.35;2.50;;;;;;;;;;5044604;28;20059;-70
2022/04/01 07:34:58;;;;;;;8.45;2.28;;;;;;;;;;5042465;28;20493;-71
2022/04/01 07:37:25;;;;;;;5.57;2.00;;;;;;;;;;5045510;28;20112;-71
2022/04/01 07:39:52;;;;;;;5.57;2.28;;;;;;;;;;5043783;28;20021;-71
2022/04/01 07:42:20;;;;;;;9.23;2.42;;;;;;;;;;5055618;28;20519;-71
2022/04/01 07:44:47;;;;;;;5.20;2.50;;;;;;;;;;5052880;28;20037;-70
2022/04/01 07:47:14;;;;;;;7.35;2.08;;;;;;;;;;5044763;28;20489;-71
2022/04/01 07:49:41;;;;;;;5.70;2.13;;;;;;;;;;5042303;28;20056;-72
2022/04/01 07:52:08;;;;;;;7.07;1.63;;;;;;;;;;5042182;28;20041;-70
2022/04/01 07:54:35;;;;;;;3.42;2.00;;;;;;;;;;5058546;28;20627;-71
2022/04/01 07:57:01;;;;;;;5.50;1.55;;;;;;;;;;5060666;28;20094;-75
2022/04/01 07:59:27;;;;;;;4.97;1.77;;;;;;;;;;5044152;28;20021;-75
2022/04/01 08:01:54;;;;;;;9.38;1.80;;;;;;;;;;5054646;28;20101;-74
2022/04/01 08:04:20;;;;;;;6.07;2.15;;;;;;;;;;5045034;28;20223;-74
2022/04/01 08:06:46;;;;;;;5.72;1.67;;;;;;;;;;5023587;28;20049;-72
2022/04/01 08:09:12;;;;;;;6.97;1.88;;;;;;;;;;5041026;28;20429;-70
2022/04/01 08:11:38;;;;;;;5.22;1.90;;;;;;;;;;5043863;28;20037;-71
2022/04/01 08:14:05;;;;;;;4.65;1.70;;;;;;;;;;5042626;28;20867;-70
2022/04/01 08:16:31;;;;;;;6.55;1.83;;;;;;;;;;5043673;28;20063;-71
2022/04/01 08:18:58;;;;;;;4.70;1.50;;;;;;;;;;5043520;28;20489;-71
2022/04/01 08:21:24;;;;;;;3.72;1.42;;;;;;;;;;5043378;28;20033;-70
2022/04/01 08:23:50;;;;;;;9.23;1.65;;;;;;;;;;5042013;28;20033;-70
2022/04/01 08:26:16;;;;;;;6.28;1.67;;;;;;;;;;5043936;28;20070;-71
2022/04/01 08:28:42;;;;;;;6.40;2.28;;;;;;;;;;5043397;28;20036;-71
2022/04/01 08:31:09;;;;;;;3.67;1.55;;;;;;;;;;5043013;28;20037;-71
2022/04/01 08:33:36;;;;;;;5.60;1.50;;;;;;;;;;5043309;28;20409;-71
2022/04/01 08:36:02;;;;;;;5.55;1.75;;;;;;;;;;5041867;28;20021;-70
2022/04/01 08:38:29;;;;;;;6.15;1.80;;;;;;;;;;5043400;28;20729;-70
2022/04/01 08:40:55;;;;;;;7.88;1.88;;;;;;;;;;5041805;28;20029;-70
2022/04/01 08:43:28;;;;;;;7.68;2.00;;;;;;;;;;5045742;28;20070;-76
2022/04/01 08:45:56;;;;;;;4.55;1.60;;;;;;;;;;5043048;28;20025;-70
2022/04/01 08:48:22;;;;;;;6.72;2.10;;;;;;;;;;5041224;28;20044;-70
2022/04/01 08:50:50;;;;;;;9.15;2.03;;;;;;;;;;5037031;28;20029;-71
2022/04/01 08:53:16;;;;;;;9.13;2.35;;;;;;;;;;5022768;28;20143;-71
2022/04/01 08:55:49;;;;;;;10.93;2.75;;;;;;;;;;5030669;28;20025;-72
2022/04/01 08:58:19;;;;;;;5.70;2.40;;;;;;;;;;5050389;28;20016;-71
2022/04/01 09:00:49;;;;;;;9.77;2.70;;;;;;;;;;5042391;28;20033;-71
2022/04/01 09:03:16;;;;;;;7.53;2.33;;;;;;;;;;5041378;28;20035;-71
2022/04/01 09:05:47;;;;;;;7.78;2.70;;;;;;;;;;5041362;28;20041;-70
2022/04/01 09:08:15;;;;;;;11.48;3.33;;;;;;;;;;5013219;28;20556;-72
2022/04/01 09:10:58;;;;;;;5.55;2.35;;;;;;;;;;5022370;28;20095;-71
2022/04/01 09:13:29;;;;;;;9.18;2.78;;;;;;;;;;5060643;28;20786;-75
2022/04/01 09:15:55;;;;;;;6.82;2.42;;;;;;;;;;5058552;28;20028;-73
2022/04/01 09:18:35;;;;;;;9.32;2.60;;;;;;;;;;5042790;28;20029;-72
2022/04/01 09:21:01;;;;;;;8.02;2.40;;;;;;;;;;5041862;28;20260;-74
2022/04/01 09:23:27;;;;;;;9.00;2.40;;;;;;;;;;5042473;28;20120;-75
2022/04/01 09:25:54;;;;;;;10.95;2.75;;;;;;;;;;5041144;28;20025;-74
2022/04/01 09:28:29;;;;;;;11.20;3.13;;;;;;;;;;5041762;28;20527;-72
2022/04/01 09:30:59;;;;;;;17.13;2.50;;;;;;;;;;5022352;28;20493;-72
2022/04/01 09:33:29;;;;;;;8.55;2.90;;;;;;;;;;5022478;28;20028;-72
2022/04/01 09:35:55;;;;;;;5.65;2.08;;;;;;;;;;5026449;28;20032;-74
2022/04/01 09:38:23;;;;;;;17.08;2.42;;;;;;;;;;5041688;28;20071;-73
2022/04/01 09:40:51;;;;;;;11.93;2.53;;;;;;;;;;5039881;28;20025;-70
2022/04/01 09:43:23;;;;;;;8.02;2.33;;;;;;;;;;5041898;28;20037;-70
2022/04/01 09:45:49;;;;;;;12.75;2.83;;;;;;;;;;5042180;28;20017;-70
2022/04/01 09:48:19;;;;;;;7.57;2.17;;;;;;;;;;5041832;28;20654;-70
2022/04/01 09:50:55;;;;;;;8.25;2.40;;;;;;;;;;5041126;28;20507;-73
2022/04/01 09:53:21;;;;;;;12.57;2.60;;;;;;;;;;5022403;28;20877;-70
2022/04/01 09:55:49;;;;;;;11.73;3.15;;;;;;;;;;5041301;28;20129;-70
2022/04/01 09:58:16;;;;;;;8.00;2.60;;;;;;;;;;5041550;28;20108;-70
2022/04/01 10:00:43;;;;;;;8.20;2.88;;;;;;;;;;5041209;28;20032;-70
2022/04/01 10:03:10;;;;;;;9.85;2.95;;;;;;;;;;5044864;28;20024;-70
2022/04/01 10:05:37;;;;;;;10.05;2.72;;;;;;;;;;5056121;28;20401;-75
2022/04/01 10:08:04;;;;;;;14.95;3.10;;;;;;;;;;5040356;28;20032;-70
2022/04/01 10:10:31;;;;;;;6.00;2.53;;;;;;;;;;5041526;28;20056;-73
2022/04/01 10:13:20;;;;;;;12.60;2.90;;;;;;;;;;5040858;28;20024;-72
2022/04/01 10:15:49;;;;;;;15.27;2.92;;;;;;;;;;5030634;28;20044;-71
2022/04/01 10:18:17;;;;;;;9.07;2.65;;;;;;;;;;5041885;28;20193;-71
2022/04/01 10:20:43;;;;;;;9.63;2.38;;;;;;;;;;5039536;28;20056;-71
2022/04/01 10:23:11;;;;;;;7.30;2.30;;;;;;;;;;5041406;28;20075;-71
2022/04/01 10:25:55;;;;;;;10.43;3.00;;;;;;;;;;5041245;28;20040;-74
2022/04/01 10:28:22;;;;;;;10.05;2.65;;;;;;;;;;5041659;28;20096;-71
2022/04/01 10:30:52;;;;;;;10.50;2.50;;;;;;;;;;5040726;28;20025;-71
2022/04/01 10:33:22;;;;;;;6.95;2.50;;;;;;;;;;5039316;28;20107;-71
2022/04/01 10:35:49;;;;;;;8.48;2.30;;;;;;;;;;5041053;28;20021;-71
2022/04/01 10:38:17;;;;;;;5.90;2.60;;;;;;;;;;5041274;28;20036;-70
2022/04/01 10:40:49;;;;;;;7.22;2.30;;;;;;;;;;5055575;28;20618;-70
2022/04/01 10:43:18;;;;;;;4.50;2.05;;;;;;;;;;5027235;28;20036;-72
2022/04/01 10:46:03;;;;;;;5.40;1.73;;;;;;;;;;5048757;28;20037;-70
2022/04/01 10:51:37;;;;;;;5.50;1.20;;;;;;;;;;5056642;28;20063;-70
2022/04/01 10:54:06;;;;;;;4.32;1.85;;;;;;;;;;5052980;28;20056;-71
2022/04/01 10:56:34;;;;;;;3.40;1.20;;;;;;;;;;5049362;28;20029;-71
2022/04/01 10:59:12;;;;;;;4.75;1.30;;;;;;;;;;5022942;28;20390;-70
2022/04/01 11:01:39;;;;;;;7.20;1.60;;;;;;;;;;5039738;28;20126;-71
2022/04/01 11:04:08;;;;;;;3.58;1.00;;;;;;;;;;5048542;28;20096;-71
2022/04/01 11:06:49;;;;;;;5.43;1.30;;;;;;;;;;5054509;28;20064;-70
2022/04/01 11:09:35;;;;;;;5.80;1.20;;;;;;;;;;5044066;28;20519;-72
2022/04/01 11:14:55;;;;;;;4.57;1.40;;;;;;;;;;5031997;28;20029;-71
2022/04/01 11:17:26;;;;;;;7.38;1.70;;;;;;;;;;5040629;28;20029;-72
2022/04/01 11:20:04;;;;;;;5.40;1.50;;;;;;;;;;5040663;28;20083;-74
2022/04/01 11:22:33;;;;;;;4.75;1.65;;;;;;;;;;5055581;28;20363;-71
2022/04/01 11:24:59;;;;;;;3.55;1.30;;;;;;;;;;5048805;28;20407;-71
2022/04/01 11:27:26;;;;;;;5.53;1.75;;;;;;;;;;5046893;28;20039;-71
2022/04/01 11:30:09;;;;;;;5.28;1.45;;;;;;;;;;5048016;28;20028;-71
2022/04/01 11:32:36;;;;;;;6.25;1.38;;;;;;;;;;5042453;28;20036;-71
2022/04/01 11:35:02;;;;;;;7.75;1.58;;;;;;;;;;5056051;28;20107;-71
2022/04/01 11:37:29;;;;;;;4.22;1.45;;;;;;;;;;5046504;28;20024;-70
2022/04/01 11:40:11;;;;;;;5.47;1.45;;;;;;;;;;5044035;28;20025;-70
2022/04/01 11:42:52;;;;;;;7.15;1.30;;;;;;;;;;5043063;28;20032;-70
2022/04/01 11:45:18;;;;;;;3.65;0.90;;;;;;;;;;5043983;28;20116;-71
2022/04/01 11:47:44;;;;;;;9.93;1.77;;;;;;;;;;5053380;28;20033;-70
2022/04/01 11:50:12;;;;;;;3.33;0.93;;;;;;;;;;5029076;28;20033;-72
2022/04/01 11:52:39;;;;;;;3.47;1.00;;;;;;;;;;5061671;28;20664;-71
2022/04/01 11:55:16;;;;;;;6.47;1.45;;;;;;;;;;5052109;28;20032;-70
2022/04/01 11:57:42;;;;;;;2.85;1.00;;;;;;;;;;5039032;28;20456;-71
2022/04/01 12:00:16;;;;;;;3.85;1.45;;;;;;;;;;5048683;28;20024;-71
2022/04/01 12:02:43;;;;;;;3.67;1.10;;;;;;;;;;5042997;28;20044;-71
2022/04/01 12:05:10;;;;;;;5.90;1.40;;;;;;;;;;5059972;28;20029;-72
2022/04/01 12:10:22;;;;;;;3.63;1.20;;;;;;;;;;5023699;28;20128;-70
2022/04/01 12:13:04;;;;;;;15.07;2.45;;;;;;;;;;5043252;28;20059;-71
2022/04/01 12:15:41;;;;;;;5.70;1.40;;;;;;;;;;5043038;28;20079;-73
2022/04/01 12:18:09;;;;;;;2.83;1.20;;;;;;;;;;5022182;28;20108;-70
2022/04/01 12:20:39;;;;;;;8.50;1.27;;;;;;;;;;5023575;28;20131;-75
2022/04/01 12:23:06;;;;;;;6.47;1.63;;;;;;;;;;5041200;28;20021;-70
2022/04/01 12:25:33;;;;;;;11.13;1.88;;;;;;;;;;5051155;28;20098;-69
2022/04/01 12:28:01;;;;;;;8.20;1.92;;;;;;;;;;5038926;28;20061;-69
2022/04/01 12:30:39;;;;;;;7.53;1.55;;;;;;;;;;5038331;28;20033;-70
2022/04/01 12:33:07;;;;;;;10.20;2.22;;;;;;;;;;5037718;28;20406;-70
2022/04/01 12:35:34;;;;;;;6.57;1.83;;;;;;;;;;5047174;28;20071;-70
2022/04/01 12:38:04;;;;;;;4.05;1.65;;;;;;;;;;5053552;28;20097;-70
2022/04/01 12:40:45;;;;;;;4.03;1.58;;;;;;;;;;5047009;28;20056;-70
2022/04/01 12:43:30;;;;;;;13.65;1.65;;;;;;;;;;5045306;28;20032;-71
2022/04/01 12:46:03;;;;;;;8.73;2.00;;;;;;;;;;5051425;28;20574;-69
2022/04/01 12:48:29;;;;;;;4.45;1.40;;;;;;;;;;5049371;28;20120;-70
2022/04/01 12:51:02;;;;;;;14.85;2.33;;;;;;;;;;5042552;28;20041;-69
2022/04/01 12:53:30;;;;;;;7.95;1.90;;;;;;;;;;5054846;28;20028;-70
2022/04/01 12:56:16;;;;;;;4.95;1.50;;;;;;;;;;5047483;28;20724;-73
2022/04/01 12:58:58;;;;;;;10.35;1.88;;;;;;;;;;5062956;28;20131;-75
2022/04/01 13:01:26;;;;;;;6.60;1.50;;;;;;;;;;5046826;28;20032;-70
2022/04/01 13:03:52;;;;;;;7.15;1.38;;;;;;;;;;5053144;28;20059;-71
2022/04/01 13:06:20;;;;;;;5.25;1.85;;;;;;;;;;5042789;28;20049;-70
2022/04/01 13:08:56;;;;;;;7.25;1.33;;;;;;;;;;5042075;28;20036;-70
2022/04/01 13:11:23;;;;;;;9.23;1.40;;;;;;;;;;5042380;28;20528;-70
2022/04/01 13:13:53;;;;;;;4.57;1.35;;;;;;;;;;5042406;28;20108;-70
2022/04/01 13:16:19;;;;;;;5.72;1.42;;;;;;;;;;5042762;28;20048;-69
2022/04/01 13:18:45;;;;;;;5.63;1.50;;;;;;;;;;5040753;28;20021;-70
2022/04/01 13:21:12;;;;;;;6.13;1.40;;;;;;;;;;5042555;28;20071;-70
2022/04/01 13:23:38;;;;;;;5.38;1.27;;;;;;;;;;5042218;28;20037;-70
2022/04/01 13:26:05;;;;;;;4.30;1.27;;;;;;;;;;5042455;28;20021;-70
2022/04/01 13:28:31;;;;;;;6.63;1.63;;;;;;;;;;5042643;28;21042;-70
2022/04/01 13:30:58;;;;;;;4.82;1.80;;;;;;;;;;5040865;28;20112;-69
2022/04/01 13:33:24;;;;;;;3.78;1.27;;;;;;;;;;5042762;28;20052;-69
2022/04/01 13:35:51;;;;;;;4.85;1.40;;;;;;;;;;5041913;28;20043;-69
2022/04/01 13:38:17;;;;;;;3.80;1.33;;;;;;;;;;5042336;28;20028;-69
2022/04/01 13:40:43;;;;;;;5.18;1.50;;;;;;;;;;5023173;28;20753;-70
2022/04/01 13:43:10;;;;;;;3.97;1.83;;;;;;;;;;5042315;28;20032;-70
2022/04/01 13:45:39;;;;;;;5.03;1.67;;;;;;;;;;5042220;28;20029;-69
2022/04/01 13:48:06;;;;;;;5.97;1.70;;;;;;;;;;5041973;28;20028;-70
2022/04/01 13:50:32;;;;;;;7.07;1.63;;;;;;;;;;5024243;28;20084;-70
2022/04/01 13:52:58;;;;;;;4.60;1.73;;;;;;;;;;5040000;28;20116;-69
2022/04/01 13:55:24;;;;;;;7.18;1.73;;;;;;;;;;5041665;28;20031;-70
2022/04/01 13:57:50;;;;;;;6.43;1.80;;;;;;;;;;5041607;28;20027;-69
2022/04/01 14:00:21;;;;;;;5.60;1.50;;;;;;;;;;5041941;28;20020;-70
2022/04/01 14:02:47;;;;;;;8.35;1.77;;;;;;;;;;5040327;28;20032;-69
2022/04/01 14:05:13;;;;;;;6.18;1.63;;;;;;;;;;5041846;28;20025;-69
2022/04/01 14:07:39;;;;;;;4.70;1.80;;;;;;;;;;5042148;28;20029;-70
2022/04/01 14:10:06;;;;;;;6.68;1.80;;;;;;;;;;5023785;28;20021;-72
2022/04/01 14:12:32;;;;;;;6.47;1.77;;;;;;;;;;5041590;28;20047;-69
2022/04/01 14:14:59;;;;;;;5.43;2.55;;;;;;;;;;5041361;28;20029;-69
2022/04/01 14:17:26;;;;;;;8.43;2.47;;;;;;;;;;5040170;28;20025;-70
2022/04/01 14:19:52;;;;;;;9.25;2.22;;;;;;;;;;5041739;28;20021;-69
2022/04/01 14:22:18;;;;;;;9.60;2.40;;;;;;;;;;5041660;28;20567;-70
2022/04/01 14:24:44;;;;;;;5.32;1.65;;;;;;;;;;5041333;28;20505;-69
2022/04/01 14:27:11;;;;;;;13.45;2.17;;;;;;;;;;5040013;28;20056;-69
2022/04/01 14:32:22;;;;;;;6.75;2.30;;;;;;;;;;5041183;28;20094;-71
2022/04/01 14:34:48;;;;;;;9.23;3.17;;;;;;;;;;5041552;28;20040;-69
2022/04/01 14:37:14;;;;;;;8.68;3.78;;;;;;;;;;5040841;28;20053;-70
2022/04/01 14:39:40;;;;;;;6.80;2.40;;;;;;;;;;5039502;28;20104;-69
2022/04/01 14:42:07;;;;;;;9.70;3.17;;;;;;;;;;5041119;28;20037;-69
2022/04/01 14:44:33;;;;;;;7.00;2.10;;;;;;;;;;5041846;28;20028;-69
2022/04/01 14:47:01;;;;;;;9.32;2.58;;;;;;;;;;5041123;28;20523;-70
2022/04/01 14:49:27;;;;;;;5.30;2.72;;;;;;;;;;5041257;28;20033;-69
2022/04/01 14:51:55;;;;;;;10.25;2.53;;;;;;;;;;5041014;28;20040;-69
2022/04/01 14:54:22;;;;;;;11.00;2.85;;;;;;;;;;5041048;28;20078;-69
2022/04/01 14:56:48;;;;;;;11.02;2.30;;;;;;;;;;5039774;28;20589;-70
2022/04/01 14:59:15;;;;;;;12.38;2.70;;;;;;;;;;5041154;28;20100;-70
2022/04/01 15:01:41;;;;;;;14.93;3.63;;;;;;;;;;5032243;28;20519;-70